createdAt,value
2022-12-18T00:00:14.637Z,78.22
2022-12-18T00:02:45.452Z,77.25
2022-12-18T00:05:14.392Z,94.78
2022-12-18T00:07:44.508Z,76.97
2022-12-18T00:10:15.335Z,83.38
2022-12-18T00:12:43.991Z,82.75
2022-12-18T00:15:11.855Z,77.85
2022-12-18T00:17:40.438Z,90.75
2022-12-18T00:20:10.426Z,79.68
2022-12-18T00:22:40.743Z,79.30
2022-12-18T00:25:11.063Z,81.85
2022-12-18T00:27:41.719Z,80.20
2022-12-18T00:30:12.088Z,87.10
2022-12-18T00:32:41.628Z,79.20
2022-12-18T00:35:12.276Z,81.43
2022-12-18T00:37:41.379Z,78.13
2022-12-18T00:40:12.542Z,84.40
2022-12-18T00:42:58.324Z,80.47
2022-12-18T00:45:30.582Z,90.85
2022-12-18T00:48:01.315Z,84.20
2022-12-18T00:50:32.058Z,88.57
2022-12-18T00:53:03.981Z,80.13
2022-12-18T00:55:33.518Z,76.13
2022-12-18T00:58:03.467Z,83.30
2022-12-18T01:00:35.062Z,75.80
2022-12-18T01:03:04.851Z,73.60
2022-12-18T01:05:35.022Z,83.85
2022-12-18T01:08:05.280Z,84.97
2022-12-18T01:10:34.879Z,76.88
2022-12-18T01:13:02.809Z,86.95
2022-12-18T01:15:33.703Z,82.57
2022-12-18T01:18:04.165Z,84.15
2022-12-18T01:20:32.252Z,92.38
2022-12-18T01:23:01.009Z,90.63
2022-12-18T01:25:29.967Z,83.60
2022-12-18T01:28:01.068Z,89.55
2022-12-18T01:30:32.608Z,65.60
2022-12-18T01:33:01.152Z,70.93
2022-12-18T01:35:31.003Z,75.30
2022-12-18T01:38:01.008Z,76.32
2022-12-18T01:40:32.386Z,78.05
2022-12-18T01:43:03.340Z,74.53
2022-12-18T01:45:35.967Z,72.97
2022-12-18T01:48:09.634Z,72.72
2022-12-18T01:50:45.311Z,67.90
2022-12-18T01:53:18.723Z,70.13
2022-12-18T01:55:51.831Z,74.68
2022-12-18T01:58:24.564Z,75.10
2022-12-18T02:00:54.411Z,77.97
2022-12-18T02:03:24.952Z,71.38
2022-12-18T02:06:01.870Z,65.10
2022-12-18T02:08:50.217Z,60.95
2022-12-18T02:11:28.712Z,66.70
2022-12-18T02:14:19.745Z,66.35
2022-12-18T02:17:23.901Z,67.65
2022-12-18T02:20:16.353Z,63.90
2022-12-18T02:22:53.342Z,57.25
2022-12-18T02:25:43.015Z,56.63
2022-12-18T02:28:17.990Z,58.15
2022-12-18T02:30:51.771Z,60.45
2022-12-18T02:33:23.305Z,58.90
2022-12-18T02:35:56.804Z,55.75
2022-12-18T02:38:29.773Z,60.25
2022-12-18T02:41:03.976Z,59.40
2022-12-18T03:06:03.974Z,51.45
2022-12-18T03:08:46.395Z,45.10
2022-12-18T03:13:52.624Z,45.30
2022-12-18T03:16:28.962Z,51.85
2022-12-18T03:18:59.931Z,47.65
2022-12-18T03:21:35.158Z,45.38
2022-12-18T03:24:10.703Z,49.83
2022-12-18T03:26:44.444Z,48.90
2022-12-18T03:29:37.059Z,45.13
2022-12-18T03:32:34.421Z,43.42
2022-12-18T03:35:08.160Z,46.10
2022-12-18T03:37:40.195Z,51.17
2022-12-18T03:40:11.637Z,48.05
2022-12-18T03:42:58.082Z,45.92
2022-12-18T03:45:40.239Z,48.90
2022-12-18T03:48:41.467Z,50.03
2022-12-18T03:51:41.197Z,41.60
2022-12-18T03:54:12.631Z,45.30
2022-12-18T03:56:56.289Z,46.38
2022-12-18T03:59:48.702Z,44.92
2022-12-18T04:06:52.245Z,43.75
2022-12-18T04:09:32.048Z,53.15
2022-12-18T04:12:00.976Z,43.40
2022-12-18T04:14:30.638Z,41.08
2022-12-18T04:17:01.418Z,49.88
2022-12-18T04:19:35.700Z,45.30
2022-12-18T04:24:44.511Z,42.17
2022-12-18T04:27:24.321Z,40.22
2022-12-18T04:29:55.145Z,43.53
2022-12-18T04:32:25.236Z,42.33
2022-12-18T04:34:56.925Z,39.70
2022-12-18T04:37:26.995Z,36.77
2022-12-18T04:39:56.889Z,39.30
2022-12-18T04:42:35.730Z,37.92
2022-12-18T04:45:05.795Z,38.20
2022-12-18T04:47:33.272Z,42.88
2022-12-18T04:50:04.407Z,41.42
2022-12-18T04:52:32.130Z,41.08
2022-12-18T04:55:10.773Z,39.10
2022-12-18T05:32:07.578Z,28.73
2022-12-18T06:42:22.574Z,27.58
2022-12-18T06:44:52.280Z,32.17
2022-12-18T06:47:22.273Z,32.22
2022-12-18T06:49:50.720Z,30.75
2022-12-18T06:52:18.995Z,28.50
2022-12-18T06:54:49.150Z,28.45
2022-12-18T06:57:18.311Z,29.05
2022-12-18T06:59:49.245Z,27.88
2022-12-18T07:02:18.889Z,25.43
2022-12-18T07:04:48.140Z,24.90
2022-12-18T07:07:17.121Z,29.08
2022-12-18T07:09:47.191Z,26.85
2022-12-18T07:12:17.021Z,27.30
2022-12-18T07:14:46.945Z,34.40
2022-12-18T07:17:21.691Z,24.85
2022-12-18T07:24:14.602Z,28.10
2022-12-18T07:32:06.527Z,27.27
2022-12-18T07:38:38.082Z,24.75
2022-12-18T07:55:54.734Z,23.02
2022-12-18T07:58:32.394Z,24.98
2022-12-18T08:02:01.054Z,26.65
2022-12-18T08:04:31.795Z,25.95
2022-12-18T08:07:01.742Z,23.83
2022-12-18T08:09:30.162Z,35.22
2022-12-18T08:11:59.515Z,36.05
2022-12-18T08:14:28.455Z,25.05
2022-12-18T08:17:02.258Z,29.38
2022-12-18T08:19:33.011Z,24.02
2022-12-18T08:22:03.152Z,32.75
2022-12-18T08:24:31.113Z,28.83
2022-12-18T08:27:27.797Z,27.40
2022-12-18T08:29:48.370Z,38.92
2022-12-18T08:32:16.058Z,27.25
2022-12-18T08:34:45.056Z,24.85
2022-12-18T08:37:13.496Z,25.15
2022-12-18T09:00:39.644Z,27.77
2022-12-18T09:20:09.381Z,26.95
2022-12-18T09:35:46.751Z,19.42
2022-12-18T09:40:11.012Z,24.45
2022-12-18T09:42:40.916Z,21.77
2022-12-18T09:45:16.130Z,20.15
2022-12-18T09:47:46.259Z,25.15
2022-12-18T09:50:56.475Z,20.60
2022-12-18T10:00:30.987Z,21.17
2022-12-18T10:03:23.653Z,18.92
2022-12-18T10:06:19.807Z,20.40
2022-12-18T10:09:06.499Z,17.40
2022-12-18T10:15:29.158Z,19.42
2022-12-18T10:18:21.836Z,20.77
2022-12-18T10:20:57.768Z,23.30
2022-12-18T10:23:59.539Z,23.10
2022-12-18T10:26:27.284Z,19.55
2022-12-18T10:28:56.367Z,21.63
2022-12-18T10:31:26.332Z,20.73
2022-12-18T10:33:56.259Z,21.95
2022-12-18T10:36:25.798Z,18.83
2022-12-18T10:38:53.065Z,18.65
2022-12-18T10:41:21.789Z,20.30
2022-12-18T10:43:49.521Z,18.15
2022-12-18T10:46:20.800Z,16.77
2022-12-18T10:48:48.430Z,19.10
2022-12-18T10:51:31.705Z,21.10
2022-12-18T10:54:02.109Z,29.13
2022-12-18T10:56:34.003Z,19.20
2022-12-18T10:59:10.745Z,16.20
2022-12-18T11:01:58.532Z,19.17
2022-12-18T11:04:33.253Z,20.88
2022-12-18T11:07:09.748Z,19.90
2022-12-18T11:09:39.091Z,21.70
2022-12-18T11:12:21.088Z,20.77
2022-12-18T11:14:53.165Z,24.42
2022-12-18T11:17:36.088Z,21.83
2022-12-18T11:20:20.281Z,18.98
2022-12-18T11:23:03.918Z,23.58
2022-12-18T11:25:35.102Z,19.23
2022-12-18T11:28:27.685Z,20.80
2022-12-18T11:31:33.670Z,24.88
2022-12-18T11:34:28.635Z,22.00
2022-12-18T11:37:01.036Z,17.60
2022-12-18T11:39:45.251Z,23.70
2022-12-18T11:42:16.443Z,22.27
2022-12-18T11:44:51.354Z,20.48
2022-12-18T11:47:38.154Z,19.48
2022-12-18T11:50:19.280Z,21.80
2022-12-18T11:52:49.392Z,18.60
2022-12-18T11:55:46.430Z,18.38
2022-12-18T11:58:36.020Z,17.02
2022-12-18T12:01:08.745Z,16.25
2022-12-18T12:04:02.687Z,16.92
2022-12-18T12:06:45.339Z,19.02
2022-12-18T12:09:45.489Z,17.90
2022-12-18T12:12:18.274Z,18.92
2022-12-18T12:15:08.259Z,22.92
2022-12-18T12:17:52.312Z,19.67
2022-12-18T12:20:46.628Z,17.88
2022-12-18T12:23:32.804Z,16.38
2022-12-18T12:26:11.316Z,21.95
2022-12-18T12:28:49.862Z,25.67
2022-12-18T12:31:29.206Z,22.90
2022-12-18T12:34:18.371Z,20.88
2022-12-18T12:37:11.362Z,21.02
2022-12-18T12:39:41.753Z,23.77
2022-12-18T12:42:53.091Z,16.85
2022-12-18T12:45:28.769Z,28.67
2022-12-18T12:47:56.754Z,19.40
2022-12-18T12:50:25.528Z,21.50
2022-12-18T12:52:56.535Z,22.20
2022-12-18T12:55:25.988Z,22.38
2022-12-18T12:58:27.609Z,22.40
2022-12-18T13:01:24.390Z,23.58
2022-12-18T13:04:02.338Z,41.05
2022-12-18T13:06:29.285Z,19.55
2022-12-18T13:09:01.402Z,21.42
2022-12-18T13:11:57.797Z,19.17
2022-12-18T13:14:35.478Z,22.58
2022-12-18T13:17:25.882Z,21.13
2022-12-18T13:20:17.327Z,22.40
2022-12-18T13:22:51.277Z,21.85
2022-12-18T13:25:37.900Z,18.85
2022-12-18T13:28:07.011Z,19.95
2022-12-18T13:30:34.494Z,17.92
2022-12-18T13:33:24.949Z,21.25
2022-12-18T13:35:51.926Z,19.85
2022-12-18T13:38:24.921Z,21.08
2022-12-18T13:40:51.761Z,32.47
2022-12-18T13:43:21.816Z,23.67
2022-12-18T13:46:26.429Z,22.90
2022-12-18T13:49:14.714Z,24.42
2022-12-18T13:51:55.057Z,22.63
2022-12-18T13:54:41.387Z,25.75
2022-12-18T13:57:30.963Z,24.02
2022-12-18T13:59:58.779Z,22.65
2022-12-18T14:02:28.180Z,21.08
2022-12-18T14:04:56.425Z,21.95
2022-12-18T14:07:26.574Z,22.05
2022-12-18T14:10:12.205Z,22.50
2022-12-18T14:12:57.877Z,23.67
2022-12-18T14:15:27.999Z,22.75
2022-12-18T14:17:58.608Z,25.55
2022-12-18T14:20:27.437Z,21.63
2022-12-18T14:22:55.507Z,21.05
2022-12-18T14:25:25.851Z,21.83
2022-12-18T14:28:10.636Z,25.42
2022-12-18T14:30:46.209Z,20.90
2022-12-18T14:33:13.179Z,24.75
2022-12-18T14:35:59.535Z,22.13
2022-12-18T14:38:29.958Z,27.77
2022-12-18T14:41:02.066Z,26.02
2022-12-18T14:43:32.924Z,20.45
2022-12-18T14:46:03.177Z,23.08
2022-12-18T14:48:44.744Z,29.77
2022-12-18T14:51:28.049Z,26.27
2022-12-18T14:54:04.983Z,24.35
2022-12-18T14:56:36.765Z,25.05
2022-12-18T14:59:35.509Z,27.25
2022-12-18T15:02:19.870Z,23.38
2022-12-18T15:04:47.647Z,23.27
2022-12-18T15:07:25.774Z,22.00
2022-12-18T15:10:11.560Z,23.98
2022-12-18T15:12:42.082Z,21.55
2022-12-18T15:15:35.062Z,25.58
2022-12-18T15:20:42.643Z,22.60
2022-12-18T15:23:23.907Z,22.00
2022-12-18T15:26:09.825Z,22.25
2022-12-18T15:28:39.134Z,24.08
2022-12-18T15:31:18.029Z,29.70
2022-12-18T15:33:56.248Z,20.30
2022-12-18T15:36:39.297Z,24.45
2022-12-18T15:39:16.693Z,22.70
2022-12-18T15:42:04.983Z,23.35
2022-12-18T15:44:34.198Z,25.52
2022-12-18T15:47:02.665Z,29.17
2022-12-18T15:49:37.339Z,23.92
2022-12-18T15:52:08.109Z,28.90
2022-12-18T15:54:53.989Z,25.40
2022-12-18T15:57:25.620Z,23.08
2022-12-18T16:00:00.470Z,26.95
2022-12-18T16:02:29.140Z,25.60
2022-12-18T16:04:58.737Z,28.20
2022-12-18T16:07:28.149Z,27.50
2022-12-18T16:10:02.494Z,26.95
2022-12-18T16:12:32.480Z,24.35
2022-12-18T16:15:01.806Z,29.40
2022-12-18T16:17:29.461Z,29.70
2022-12-18T16:19:59.124Z,25.55
2022-12-18T16:22:31.310Z,23.95
2022-12-18T16:25:01.739Z,23.20
2022-12-18T16:27:29.603Z,27.23
2022-12-18T16:29:57.707Z,25.15
2022-12-18T16:32:25.160Z,27.40
2022-12-18T16:34:52.120Z,27.90
2022-12-18T16:37:19.806Z,30.30
2022-12-18T16:39:46.959Z,32.60
2022-12-18T16:42:26.981Z,29.80
2022-12-18T16:44:56.402Z,30.42
2022-12-18T16:47:24.507Z,30.60
2022-12-18T16:49:54.117Z,31.33
2022-12-18T16:52:22.368Z,28.27
2022-12-18T16:54:52.349Z,30.83
2022-12-18T16:57:23.170Z,28.98
2022-12-18T16:59:56.034Z,25.48
2022-12-18T17:02:28.344Z,24.30
2022-12-18T17:04:58.277Z,32.88
2022-12-18T17:07:28.661Z,33.60
2022-12-18T17:10:07.083Z,30.55
2022-12-18T17:12:38.152Z,32.63
2022-12-18T17:15:06.860Z,30.08
2022-12-18T17:17:34.587Z,28.75
2022-12-18T17:20:02.357Z,34.05
2022-12-18T17:22:29.683Z,30.08
2022-12-18T17:25:20.733Z,30.45
2022-12-18T17:28:12.158Z,30.92
2022-12-18T17:30:41.076Z,27.02
2022-12-18T17:33:09.483Z,33.72
2022-12-18T17:35:37.659Z,34.00
2022-12-18T17:38:05.919Z,31.20
2022-12-18T17:40:34.128Z,35.38
2022-12-18T17:43:05.104Z,29.27
2022-12-18T17:45:45.102Z,49.85
2022-12-18T17:48:18.736Z,41.33
2022-12-18T17:50:51.616Z,31.05
2022-12-18T17:53:22.388Z,32.17
2022-12-18T17:55:58.093Z,33.40
2022-12-18T17:58:26.819Z,31.20
2022-12-18T18:00:54.638Z,34.35
2022-12-18T18:03:22.570Z,36.50
2022-12-18T18:06:02.403Z,31.95
2022-12-18T18:08:32.680Z,30.95
2022-12-18T18:11:25.883Z,30.23
2022-12-18T18:14:23.445Z,32.05
2022-12-18T18:17:02.545Z,34.85
2022-12-18T18:19:39.391Z,36.03
2022-12-18T18:22:25.477Z,33.00
2022-12-18T18:25:13.993Z,34.15
2022-12-18T18:27:46.113Z,37.60
2022-12-18T18:30:22.818Z,45.90
2022-12-18T18:32:54.435Z,33.92
2022-12-18T18:38:48.494Z,32.42
2022-12-18T18:41:23.181Z,32.17
2022-12-18T18:44:00.511Z,35.28
2022-12-18T18:46:29.079Z,33.40
2022-12-18T18:48:59.885Z,33.85
2022-12-18T18:51:35.129Z,31.15
2022-12-18T18:54:05.049Z,70.60
2022-12-18T18:57:11.715Z,50.92
2022-12-18T18:59:31.540Z,38.42
2022-12-18T19:02:04.798Z,34.78
2022-12-18T19:04:34.736Z,33.35
2022-12-18T19:07:02.965Z,33.75
2022-12-18T19:09:32.171Z,30.85
2022-12-18T19:12:25.244Z,33.33
2022-12-18T19:14:55.425Z,36.17
2022-12-18T19:17:36.144Z,31.17
2022-12-18T19:20:28.832Z,37.92
2022-12-18T19:23:06.957Z,36.80
2022-12-18T19:29:03.472Z,34.95
2022-12-18T19:34:28.070Z,28.77
2022-12-18T19:36:59.767Z,32.78
2022-12-18T19:39:27.956Z,31.98
2022-12-18T19:41:56.570Z,31.60
2022-12-18T19:44:24.523Z,32.75
2022-12-18T19:46:51.872Z,34.45
2022-12-18T19:49:21.531Z,37.25
2022-12-18T19:51:50.487Z,32.35
2022-12-18T19:54:18.298Z,34.22
2022-12-18T19:56:46.095Z,37.00
2022-12-18T19:59:14.185Z,32.58
2022-12-18T20:01:41.477Z,32.80
2022-12-18T20:04:09.044Z,35.35
2022-12-18T20:06:47.943Z,35.38
2022-12-18T20:09:15.887Z,30.55
2022-12-18T20:11:43.494Z,30.00
2022-12-18T20:14:12.562Z,34.20
2022-12-18T20:16:39.690Z,38.58
2022-12-18T20:19:07.848Z,39.75
2022-12-18T20:21:34.803Z,40.78
2022-12-18T20:24:02.201Z,39.00
2022-12-18T20:26:29.917Z,44.60
2022-12-18T20:28:56.828Z,38.25
2022-12-18T20:31:24.509Z,34.92
2022-12-18T20:33:53.400Z,41.17
2022-12-18T20:36:22.640Z,35.67
2022-12-18T20:38:55.721Z,43.55
2022-12-18T20:41:27.710Z,41.22
2022-12-18T20:44:04.737Z,36.70
2022-12-18T20:46:31.718Z,35.67
2022-12-18T20:48:58.819Z,38.28
2022-12-18T20:51:28.204Z,40.55
2022-12-18T20:53:55.536Z,48.10
2022-12-18T20:56:23.576Z,43.35
2022-12-18T20:58:53.660Z,38.22
2022-12-18T21:01:23.414Z,45.67
2022-12-18T21:03:51.621Z,42.75
2022-12-18T21:06:20.622Z,44.85
2022-12-18T21:08:48.583Z,42.45
2022-12-18T21:11:38.851Z,41.85
2022-12-18T21:14:17.933Z,41.78
2022-12-18T21:16:44.999Z,38.83
2022-12-18T21:19:13.541Z,41.78
2022-12-18T21:21:41.786Z,41.25
2022-12-18T21:24:09.906Z,42.50
2022-12-18T21:26:44.897Z,44.45
2022-12-18T21:29:15.633Z,43.25
2022-12-18T21:31:43.270Z,43.05
2022-12-18T21:34:17.650Z,44.58
2022-12-18T21:36:44.948Z,40.22
2022-12-18T21:39:13.718Z,35.33
2022-12-18T21:41:59.124Z,40.78
2022-12-18T21:44:26.173Z,35.97
2022-12-18T21:46:58.194Z,44.15
2022-12-18T21:49:28.609Z,36.10
2022-12-18T21:51:57.742Z,40.60
2022-12-18T21:54:26.831Z,42.78
2022-12-18T21:57:02.380Z,50.70
2022-12-18T21:59:37.837Z,50.95
2022-12-18T22:02:14.766Z,50.20
2022-12-18T22:04:42.774Z,44.28
2022-12-18T22:07:10.742Z,52.50
2022-12-18T22:09:38.556Z,47.15
2022-12-18T22:12:06.115Z,49.10
2022-12-18T22:14:33.095Z,44.45
2022-12-18T22:17:00.088Z,48.95
2022-12-18T22:19:27.995Z,46.70
2022-12-18T22:21:54.909Z,44.20
2022-12-18T22:24:24.098Z,38.25
2022-12-18T22:26:55.829Z,45.00
2022-12-18T22:29:47.560Z,47.55
2022-12-18T22:32:30.769Z,40.22
2022-12-18T22:35:07.936Z,40.13
2022-12-18T22:37:37.020Z,46.03
2022-12-18T22:40:05.970Z,48.25
2022-12-18T22:42:34.266Z,46.55
2022-12-18T22:45:01.147Z,50.40
2022-12-18T22:47:30.335Z,45.42
2022-12-18T22:49:58.109Z,49.53
2022-12-18T22:52:25.486Z,55.67
2022-12-18T22:54:53.952Z,50.85
2022-12-18T22:57:22.240Z,46.22
2022-12-18T22:59:50.132Z,49.95
2022-12-18T23:02:18.729Z,47.83
2022-12-18T23:04:45.995Z,55.00
2022-12-18T23:07:12.897Z,52.47
2022-12-18T23:09:40.594Z,53.55
2022-12-18T23:12:08.050Z,50.90
2022-12-18T23:14:35.030Z,49.10
2022-12-18T23:17:01.978Z,54.72
2022-12-18T23:19:29.137Z,56.38
2022-12-18T23:21:58.620Z,57.75
2022-12-18T23:24:26.438Z,55.92
2022-12-18T23:26:53.554Z,59.58
2022-12-18T23:29:20.750Z,53.92
2022-12-18T23:31:47.669Z,40.70
2022-12-18T23:34:15.112Z,45.35
2022-12-18T23:36:46.206Z,49.72
2022-12-18T23:39:27.033Z,59.75
2022-12-18T23:41:59.701Z,46.90
2022-12-18T23:44:27.324Z,57.20
2022-12-18T23:46:54.581Z,55.55
2022-12-18T23:49:21.692Z,54.28
2022-12-18T23:51:49.936Z,53.80
2022-12-18T23:54:17.370Z,47.17
2022-12-18T23:56:49.424Z,52.88
2022-12-18T23:59:17.168Z,55.35
